createdAt,value
2022-10-06T00:02:24.153Z,102116.69
2022-10-06T00:04:50.733Z,102123.72
2022-10-06T00:07:17.298Z,102132.63
2022-10-06T00:09:43.765Z,102134.44
2022-10-06T00:12:10.517Z,102146.09
2022-10-06T00:14:37.014Z,102151.72
2022-10-06T00:17:03.651Z,102151.19
2022-10-06T00:19:30.146Z,102151.34
2022-10-06T00:21:56.638Z,102160.97
2022-10-06T00:24:23.097Z,102183.69
2022-10-06T00:26:49.677Z,102181.66
2022-10-06T00:29:16.227Z,102190.38
2022-10-06T00:31:43.690Z,102187.22
2022-10-06T00:34:10.312Z,102199.28
2022-10-06T00:36:37.259Z,102201.16
2022-10-06T00:39:03.819Z,102198.75
2022-10-06T00:41:30.453Z,102208.84
2022-10-06T00:44:00.595Z,102212.75
2022-10-06T00:46:45.297Z,102227.69
2022-10-06T00:49:22.144Z,102221.03
2022-10-06T00:52:04.344Z,102225.78
2022-10-06T00:54:32.285Z,102234.00
2022-10-06T00:56:59.046Z,102236.72
2022-10-06T00:59:25.573Z,102238.94
2022-10-06T01:02:05.855Z,102249.47
2022-10-06T01:04:34.313Z,102232.22
2022-10-06T01:07:01.710Z,102240.41
2022-10-06T01:09:29.326Z,102245.34
2022-10-06T01:11:58.464Z,102247.91
2022-10-06T01:14:25.717Z,102261.59
2022-10-06T01:17:02.803Z,102268.84
2022-10-06T01:19:32.385Z,102264.84
2022-10-06T01:22:00.120Z,102263.84
2022-10-06T01:24:28.316Z,102272.59
2022-10-06T01:26:55.682Z,102276.19
2022-10-06T01:29:22.175Z,102279.72
2022-10-06T01:31:48.654Z,102281.72
2022-10-06T01:34:15.203Z,102288.84
2022-10-06T01:36:42.057Z,102296.03
2022-10-06T01:39:08.571Z,102289.69
2022-10-06T01:41:35.147Z,102293.72
2022-10-06T01:44:05.435Z,102303.34
2022-10-06T01:46:31.983Z,102313.19
2022-10-06T01:48:58.482Z,102320.72
2022-10-06T01:51:24.979Z,102317.28
2022-10-06T01:53:51.503Z,102320.00
2022-10-06T01:56:18.050Z,102309.97
2022-10-06T01:58:44.555Z,102313.84
2022-10-06T02:01:11.217Z,102324.09
2022-10-06T02:03:38.969Z,102338.88
2022-10-06T02:06:06.286Z,102323.47
2022-10-06T02:08:33.117Z,102326.75
2022-10-06T02:11:03.933Z,102330.66
2022-10-06T02:13:30.422Z,102344.31
2022-10-06T02:16:00.089Z,102349.88
2022-10-06T02:18:27.529Z,102343.94
2022-10-06T02:20:54.633Z,102355.03
2022-10-06T02:23:21.105Z,102348.88
2022-10-06T02:25:51.477Z,102364.13
2022-10-06T02:28:18.171Z,102352.56
2022-10-06T02:30:44.656Z,102355.00
2022-10-06T02:33:11.402Z,102364.66
2022-10-06T02:35:37.947Z,102376.06
2022-10-06T02:38:04.439Z,102371.75
2022-10-06T02:40:31.096Z,102369.00
2022-10-06T02:42:58.645Z,102382.13
2022-10-06T02:45:25.101Z,102393.22
2022-10-06T02:47:54.268Z,102398.25
2022-10-06T02:50:20.821Z,102402.00
2022-10-06T02:52:47.495Z,102399.97
2022-10-06T02:55:14.012Z,102409.19
2022-10-06T02:57:40.497Z,102407.34
2022-10-06T03:00:08.305Z,102416.84
2022-10-06T03:02:35.155Z,102406.47
2022-10-06T03:05:01.913Z,102417.66
2022-10-06T03:07:28.409Z,102421.94
2022-10-06T03:09:55.443Z,102432.31
2022-10-06T03:12:22.352Z,102427.41
2022-10-06T03:14:49.141Z,102436.03
2022-10-06T03:17:15.786Z,102441.66
2022-10-06T03:19:42.584Z,102446.13
2022-10-06T03:22:10.529Z,102444.97
2022-10-06T03:24:37.011Z,102445.28
2022-10-06T03:27:03.657Z,102455.66
2022-10-06T03:29:30.976Z,102457.09
2022-10-06T03:31:58.631Z,102463.84
2022-10-06T03:34:26.905Z,102460.66
2022-10-06T03:36:53.544Z,102470.47
2022-10-06T03:39:20.108Z,102467.84
2022-10-06T03:41:46.585Z,102472.94
2022-10-06T03:44:13.401Z,102485.72
2022-10-06T03:46:40.151Z,102476.13
2022-10-06T03:49:06.897Z,102488.50
2022-10-06T03:51:38.778Z,102498.88
2022-10-06T03:54:05.872Z,102501.16
2022-10-06T03:56:34.919Z,102493.94
2022-10-06T03:59:04.006Z,102497.94
2022-10-06T04:01:35.534Z,102495.22
2022-10-06T04:04:02.588Z,102509.19
2022-10-06T04:06:31.537Z,102507.31
2022-10-06T04:08:58.481Z,102510.63
2022-10-06T04:11:27.316Z,102518.97
2022-10-06T04:14:00.469Z,102523.84
2022-10-06T04:16:31.410Z,102524.44
2022-10-06T04:19:03.077Z,102535.34
2022-10-06T04:21:31.256Z,102535.34
2022-10-06T04:23:58.917Z,102540.34
2022-10-06T04:26:30.593Z,102539.63
2022-10-06T04:28:57.685Z,102544.97
2022-10-06T04:31:30.521Z,102548.56
2022-10-06T04:33:58.965Z,102547.53
2022-10-06T04:36:30.954Z,102550.97
2022-10-06T04:38:59.563Z,102556.28
2022-10-06T04:41:34.922Z,102554.09
2022-10-06T04:44:02.128Z,102553.81
2022-10-06T04:46:42.636Z,102553.81
2022-10-06T04:49:16.244Z,102561.72
2022-10-06T04:51:46.363Z,102565.44
2022-10-06T04:54:12.962Z,102570.06
2022-10-06T04:56:39.443Z,102574.06
2022-10-06T04:59:05.972Z,102576.47
2022-10-06T05:01:34.572Z,102589.13
2022-10-06T05:04:02.573Z,102596.28
2022-10-06T05:06:33.268Z,102605.47
2022-10-06T05:09:11.573Z,102605.63
2022-10-06T05:11:38.222Z,102598.19
2022-10-06T05:14:04.861Z,102609.22
2022-10-06T05:16:31.849Z,102600.44
2022-10-06T05:18:58.861Z,102603.03
2022-10-06T05:21:30.494Z,102608.09
2022-10-06T05:23:57.437Z,102610.53
2022-10-06T05:26:26.775Z,102616.88
2022-10-06T05:28:53.319Z,102628.88
2022-10-06T05:31:24.780Z,102636.06
2022-10-06T05:33:51.481Z,102637.91
2022-10-06T05:36:22.831Z,102637.31
2022-10-06T05:38:49.358Z,102642.03
2022-10-06T05:41:17.347Z,102647.06
2022-10-06T05:43:44.410Z,102650.06
2022-10-06T05:46:17.445Z,102648.59
2022-10-06T05:48:49.506Z,102653.78
2022-10-06T05:51:17.180Z,102662.47
2022-10-06T05:53:44.285Z,102662.31
2022-10-06T05:56:24.463Z,102664.59
2022-10-06T05:58:52.915Z,102676.19
2022-10-06T06:01:26.534Z,102667.03
2022-10-06T06:03:55.327Z,102669.50
2022-10-06T06:06:24.131Z,102673.69
2022-10-06T06:09:08.370Z,102667.09
2022-10-06T06:11:36.898Z,102677.75
2022-10-06T06:14:08.437Z,102679.59
2022-10-06T06:16:36.908Z,102680.31
2022-10-06T06:19:03.548Z,102682.06
2022-10-06T06:21:30.108Z,102688.38
2022-10-06T06:23:57.021Z,102690.72
2022-10-06T06:26:31.791Z,102694.88
2022-10-06T06:29:06.382Z,102697.81
2022-10-06T06:31:35.472Z,102689.53
2022-10-06T06:34:04.644Z,102696.00
2022-10-06T06:36:36.848Z,102700.34
2022-10-06T06:39:05.721Z,102707.66
2022-10-06T06:41:34.637Z,102715.00
2022-10-06T06:44:01.226Z,102733.97
2022-10-06T06:46:32.289Z,102732.44
2022-10-06T06:49:04.411Z,102742.69
2022-10-06T06:51:33.205Z,102744.09
2022-10-06T06:54:02.388Z,102751.88
2022-10-06T06:56:31.383Z,102752.94
2022-10-06T06:58:58.164Z,102752.41
2022-10-06T07:01:24.726Z,102757.03
2022-10-06T07:04:00.885Z,102753.63
2022-10-06T07:06:29.565Z,102770.22
2022-10-06T07:09:00.211Z,102771.81
2022-10-06T07:11:28.834Z,102772.56
2022-10-06T07:14:01.762Z,102771.44
2022-10-06T07:16:48.451Z,102773.16
2022-10-06T07:19:34.799Z,102774.47
2022-10-06T07:22:23.012Z,102780.63
2022-10-06T07:25:07.658Z,102779.34
2022-10-06T07:27:38.357Z,102779.06
2022-10-06T07:30:05.754Z,102773.72
2022-10-06T07:32:32.888Z,102785.06
2022-10-06T07:34:59.613Z,102792.44
2022-10-06T07:37:27.575Z,102801.91
2022-10-06T07:39:54.563Z,102801.06
2022-10-06T07:42:21.304Z,102805.63
2022-10-06T07:45:08.117Z,102812.03
2022-10-06T07:47:35.236Z,102808.66
2022-10-06T07:50:01.724Z,102810.09
2022-10-06T07:52:31.080Z,102807.84
2022-10-06T07:54:58.549Z,102810.19
2022-10-06T07:57:32.522Z,102828.31
2022-10-06T08:00:02.783Z,102820.91
2022-10-06T08:02:33.085Z,102822.94
2022-10-06T08:05:02.206Z,102817.72
2022-10-06T08:07:28.740Z,102816.41
2022-10-06T08:09:55.317Z,102827.91
2022-10-06T08:12:33.692Z,102833.75
2022-10-06T08:15:06.942Z,102829.94
2022-10-06T08:17:36.080Z,102828.38
2022-10-06T08:20:04.436Z,102831.22
2022-10-06T08:22:30.972Z,102833.78
2022-10-06T08:25:06.864Z,102842.84
2022-10-06T08:27:34.996Z,102845.03
2022-10-06T08:30:02.060Z,102848.88
2022-10-06T08:32:28.782Z,102857.78
2022-10-06T08:34:55.614Z,102857.72
2022-10-06T08:37:24.551Z,102863.03
2022-10-06T08:39:51.725Z,102863.63
2022-10-06T08:42:25.543Z,102866.88
2022-10-06T08:44:58.274Z,102869.94
2022-10-06T08:47:28.300Z,102876.66
2022-10-06T08:49:55.400Z,102868.78
2022-10-06T08:52:46.872Z,102875.56
2022-10-06T08:55:22.668Z,102883.50
2022-10-06T08:58:16.659Z,102891.94
2022-10-06T09:00:43.217Z,102899.00
2022-10-06T09:03:24.467Z,102892.03
2022-10-06T09:05:53.358Z,102909.88
2022-10-06T09:08:41.069Z,102909.00
2022-10-06T09:11:20.290Z,102887.09
2022-10-06T09:13:53.318Z,102900.50
2022-10-06T09:16:30.796Z,102902.06
2022-10-06T09:19:13.979Z,102914.22
2022-10-06T09:21:45.590Z,102917.69
2022-10-06T09:24:15.952Z,102907.84
2022-10-06T09:26:45.206Z,102909.13
2022-10-06T09:29:14.828Z,102922.09
2022-10-06T09:31:43.674Z,102916.56
2022-10-06T09:34:34.901Z,102916.69
2022-10-06T09:37:07.644Z,102915.69
2022-10-06T09:39:41.923Z,102913.53
2022-10-06T09:42:19.443Z,102918.75
2022-10-06T09:44:48.222Z,102928.97
2022-10-06T09:47:33.384Z,102912.72
2022-10-06T09:50:24.627Z,102924.66
2022-10-06T09:53:08.846Z,102926.78
2022-10-06T09:55:38.428Z,102935.41
2022-10-06T09:58:37.739Z,102935.50
2022-10-06T10:01:07.850Z,102928.38
2022-10-06T10:04:19.549Z,102927.41
2022-10-06T10:06:47.549Z,102938.97
2022-10-06T10:09:23.728Z,102939.66
2022-10-06T10:12:27.737Z,102941.13
2022-10-06T10:14:59.751Z,102944.44
2022-10-06T10:17:29.261Z,102940.00
2022-10-06T10:19:56.369Z,102943.91
2022-10-06T10:22:49.389Z,102949.94
2022-10-06T10:25:40.527Z,102936.19
2022-10-06T10:28:20.117Z,102939.88
2022-10-06T10:31:09.776Z,102946.28
2022-10-06T10:33:49.625Z,102943.41
2022-10-06T10:36:38.452Z,102945.03
2022-10-06T10:39:07.010Z,102954.00
2022-10-06T10:41:49.318Z,102952.69
2022-10-06T10:44:35.041Z,102965.22
2022-10-06T10:47:25.886Z,102946.31
2022-10-06T10:50:00.077Z,102956.69
2022-10-06T10:52:30.318Z,102947.50
2022-10-06T10:55:33.168Z,102960.09
2022-10-06T10:58:06.117Z,102957.78
2022-10-06T11:00:36.186Z,102955.28
2022-10-06T11:03:02.737Z,102954.31
2022-10-06T11:05:38.284Z,102962.69
2022-10-06T11:08:27.161Z,102952.78
2022-10-06T11:11:02.388Z,102958.66
2022-10-06T11:13:49.432Z,102964.00
2022-10-06T11:16:58.372Z,102958.81
2022-10-06T11:19:49.399Z,102975.31
2022-10-06T11:22:34.753Z,102967.53
2022-10-06T11:25:19.427Z,102968.84
2022-10-06T11:28:21.300Z,102961.94
2022-10-06T11:30:56.792Z,102953.84
2022-10-06T11:33:55.818Z,102956.00
2022-10-06T11:36:38.092Z,102955.25
2022-10-06T11:39:30.261Z,102965.56
2022-10-06T11:42:47.549Z,102962.16
2022-10-06T11:45:23.385Z,102975.28
2022-10-06T11:48:13.671Z,102960.22
2022-10-06T11:50:45.194Z,102963.69
2022-10-06T11:53:30.375Z,102955.25
2022-10-06T11:56:18.362Z,102961.88
2022-10-06T11:58:50.758Z,102964.66
2022-10-06T12:01:32.749Z,102954.69
2022-10-06T12:04:08.194Z,102955.66
2022-10-06T12:06:44.816Z,102958.16
2022-10-06T12:09:46.027Z,102956.09
2022-10-06T12:12:15.648Z,102955.31
2022-10-06T12:18:04.763Z,102953.56
2022-10-06T12:20:38.165Z,102966.75
2022-10-06T12:23:16.434Z,102951.81
2022-10-06T12:26:24.655Z,102950.19
2022-10-06T12:28:55.827Z,102944.31
2022-10-06T12:31:37.476Z,102946.06
2022-10-06T12:34:04.127Z,102939.09
2022-10-06T12:36:31.989Z,102947.13
2022-10-06T12:39:02.230Z,102935.63
2022-10-06T12:41:58.790Z,102930.13
2022-10-06T12:44:30.509Z,102941.22
2022-10-06T12:47:01.295Z,102937.06
2022-10-06T12:49:37.095Z,102942.53
2022-10-06T12:52:20.463Z,102954.00
2022-10-06T12:55:27.633Z,102943.81
2022-10-06T12:57:54.804Z,102941.38
2022-10-06T13:00:28.078Z,102931.69
2022-10-06T13:02:57.626Z,102938.44
2022-10-06T13:05:24.348Z,102938.25
2022-10-06T13:08:20.550Z,102944.47
2022-10-06T13:10:47.211Z,102953.59
2022-10-06T13:13:24.925Z,102944.19
2022-10-06T13:16:00.679Z,102941.59
2022-10-06T13:18:27.677Z,102951.13
2022-10-06T13:20:58.027Z,102936.75
2022-10-06T13:23:28.465Z,102932.88
2022-10-06T13:25:59.788Z,102929.88
2022-10-06T13:28:29.019Z,102942.28
2022-10-06T13:33:46.071Z,102941.50
2022-10-06T13:36:13.559Z,102955.38
2022-10-06T13:38:41.632Z,102942.19
2022-10-06T13:41:11.200Z,102946.88
2022-10-06T13:43:40.642Z,102953.31
2022-10-06T13:46:12.694Z,102948.84
2022-10-06T13:48:51.734Z,102942.75
2022-10-06T13:51:21.011Z,102942.53
2022-10-06T13:53:48.442Z,102935.59
2022-10-06T13:56:27.136Z,102934.84
2022-10-06T13:58:53.639Z,102944.38
2022-10-06T14:01:32.426Z,102949.34
2022-10-06T14:04:13.201Z,102955.50
2022-10-06T14:06:58.899Z,102948.16
2022-10-06T14:09:29.444Z,102951.56
2022-10-06T14:12:16.384Z,102955.06
2022-10-06T14:14:47.937Z,102939.66
2022-10-06T14:17:23.014Z,102940.53
2022-10-06T14:19:49.346Z,102930.47
2022-10-06T14:22:38.623Z,102934.00
2022-10-06T14:25:25.663Z,102933.22
2022-10-06T14:27:52.722Z,102940.91
2022-10-06T14:30:19.193Z,102938.50
2022-10-06T14:32:45.688Z,102946.97
2022-10-06T14:35:12.228Z,102939.53
2022-10-06T14:37:38.874Z,102936.16
2022-10-06T14:40:10.138Z,102931.06
2022-10-06T14:42:38.748Z,102943.88
2022-10-06T14:45:05.681Z,102921.72
2022-10-06T14:47:32.171Z,102924.31
2022-10-06T14:49:58.684Z,102926.19
2022-10-06T14:52:25.243Z,102923.41
2022-10-06T14:54:51.762Z,102920.53
2022-10-06T14:57:18.265Z,102931.31
2022-10-06T14:59:44.784Z,102913.47
2022-10-06T15:02:25.576Z,102925.75
2022-10-06T15:04:52.287Z,102913.28
2022-10-06T15:07:44.938Z,102919.78
2022-10-06T15:10:11.562Z,102908.50
2022-10-06T15:12:38.032Z,102918.09
2022-10-06T15:15:06.289Z,102907.44
2022-10-06T15:17:32.757Z,102898.34
2022-10-06T15:19:59.309Z,102897.34
2022-10-06T15:22:26.222Z,102912.69
2022-10-06T15:24:52.676Z,102886.75
2022-10-06T15:27:37.619Z,102895.38
2022-10-06T15:30:04.540Z,102898.91
2022-10-06T15:32:31.016Z,102884.44
2022-10-06T15:34:59.563Z,102880.28
2022-10-06T15:37:26.139Z,102891.78
2022-10-06T15:39:52.845Z,102896.13
2022-10-06T15:42:21.659Z,102887.09
2022-10-06T15:44:48.671Z,102882.31
2022-10-06T15:47:15.476Z,102885.16
2022-10-06T15:49:41.962Z,102883.16
2022-10-06T15:52:11.437Z,102876.00
2022-10-06T15:54:42.188Z,102875.63
2022-10-06T15:57:10.544Z,102875.78
2022-10-06T15:59:37.289Z,102874.63
2022-10-06T16:02:07.745Z,102875.09
2022-10-06T16:04:38.519Z,102886.72
2022-10-06T16:07:06.153Z,102886.56
2022-10-06T16:09:40.667Z,102874.31
2022-10-06T16:12:11.405Z,102875.00
2022-10-06T16:14:38.109Z,102872.38
2022-10-06T16:17:06.086Z,102869.41
2022-10-06T16:19:33.133Z,102875.50
2022-10-06T16:22:00.737Z,102866.47
2022-10-06T16:24:27.509Z,102866.22
2022-10-06T16:26:54.673Z,102876.16
2022-10-06T16:29:21.885Z,102869.72
2022-10-06T16:31:48.795Z,102874.56
2022-10-06T16:36:57.848Z,102875.28
2022-10-06T16:39:24.402Z,102881.06
2022-10-06T16:41:51.263Z,102866.13
2022-10-06T16:44:18.457Z,102883.78
2022-10-06T16:46:45.374Z,102878.84
2022-10-06T16:49:12.375Z,102878.31
2022-10-06T16:51:41.111Z,102878.72
2022-10-06T16:54:12.524Z,102878.13
2022-10-06T16:56:47.015Z,102873.41
2022-10-06T16:59:18.437Z,102879.00
2022-10-06T17:01:46.008Z,102877.56
2022-10-06T17:04:18.174Z,102880.56
2022-10-06T17:06:47.065Z,102869.09
2022-10-06T17:09:15.447Z,102873.66
2022-10-06T17:11:43.719Z,102866.81
2022-10-06T17:14:10.472Z,102875.63
2022-10-06T17:16:39.527Z,102863.44
2022-10-06T17:19:06.532Z,102866.06
2022-10-06T17:21:45.477Z,102867.78
2022-10-06T17:24:14.082Z,102862.00
2022-10-06T17:26:42.499Z,102865.81
2022-10-06T17:29:13.756Z,102870.34
2022-10-06T17:31:42.195Z,102866.25
2022-10-06T17:34:12.472Z,102865.72
2022-10-06T17:36:40.519Z,102865.56
2022-10-06T17:39:08.356Z,102867.59
2022-10-06T17:41:40.322Z,102870.19
2022-10-06T17:44:13.488Z,102873.66
2022-10-06T17:46:45.480Z,102869.38
2022-10-06T17:51:55.613Z,102871.38
2022-10-06T17:54:24.126Z,102865.63
2022-10-06T17:56:53.169Z,102875.16
2022-10-06T17:59:22.407Z,102870.75
2022-10-06T18:01:51.225Z,102869.72
2022-10-06T18:04:18.539Z,102870.75
2022-10-06T18:06:46.325Z,102870.44
2022-10-06T18:09:13.208Z,102875.34
2022-10-06T18:11:41.773Z,102874.78
2022-10-06T18:14:13.232Z,102876.50
2022-10-06T18:16:56.417Z,102872.50
2022-10-06T18:19:30.301Z,102881.88
2022-10-06T18:21:59.431Z,102878.69
2022-10-06T18:24:28.125Z,102875.69
2022-10-06T18:26:56.374Z,102871.81
2022-10-06T18:29:24.883Z,102865.59
2022-10-06T18:31:52.737Z,102872.09
2022-10-06T18:37:06.243Z,102864.31
2022-10-06T18:39:33.512Z,102863.16
2022-10-06T18:42:02.955Z,102859.38
2022-10-06T18:44:48.282Z,102866.47
2022-10-06T18:47:33.199Z,102861.00
2022-10-06T18:49:59.697Z,102858.97
2022-10-06T18:52:26.187Z,102855.38
2022-10-06T18:54:52.743Z,102862.72
2022-10-06T18:57:22.613Z,102862.56
2022-10-06T18:59:51.736Z,102855.22
2022-10-06T19:02:26.592Z,102850.47
2022-10-06T19:04:53.135Z,102852.50
2022-10-06T19:07:19.634Z,102852.78
2022-10-06T19:09:47.143Z,102849.34
2022-10-06T19:12:14.327Z,102847.75
2022-10-06T19:14:47.341Z,102850.34
2022-10-06T19:17:15.150Z,102857.41
2022-10-06T19:19:51.206Z,102863.75
2022-10-06T19:22:21.858Z,102856.81
2022-10-06T19:24:48.567Z,102859.41
2022-10-06T19:27:20.587Z,102847.03
2022-10-06T19:29:53.012Z,102855.09
2022-10-06T19:32:22.317Z,102854.38
2022-10-06T19:34:48.847Z,102860.28
2022-10-06T19:37:15.961Z,102855.81
2022-10-06T19:39:45.298Z,102855.81
2022-10-06T19:42:32.011Z,102859.56
2022-10-06T19:44:58.864Z,102852.19
2022-10-06T19:47:25.414Z,102854.09
2022-10-06T19:49:52.478Z,102853.38
2022-10-06T19:52:19.065Z,102852.50
2022-10-06T19:54:46.109Z,102851.50
2022-10-06T19:57:12.794Z,102849.63
2022-10-06T19:59:39.697Z,102851.78
2022-10-06T20:02:08.648Z,102856.81
2022-10-06T20:04:35.739Z,102856.53
2022-10-06T20:07:02.553Z,102858.25
2022-10-06T20:09:32.688Z,102857.81
2022-10-06T20:12:00.370Z,102862.81
2022-10-06T20:14:27.582Z,102858.50
2022-10-06T20:16:55.060Z,102857.34
2022-10-06T20:19:22.478Z,102854.47
2022-10-06T20:21:49.263Z,102858.63
2022-10-06T20:24:18.518Z,102857.63
2022-10-06T20:26:47.892Z,102854.63
2022-10-06T20:29:17.245Z,102864.25
2022-10-06T20:31:46.010Z,102857.22
2022-10-06T20:34:15.332Z,102857.47
2022-10-06T20:36:42.514Z,102854.47
2022-10-06T20:39:31.618Z,102854.31
2022-10-06T20:41:58.115Z,102860.38
2022-10-06T20:44:25.727Z,102859.50
2022-10-06T20:46:52.364Z,102860.66
2022-10-06T20:49:18.980Z,102853.75
2022-10-06T20:51:49.867Z,102860.22
2022-10-06T20:54:17.932Z,102861.06
2022-10-06T20:56:44.486Z,102859.06
2022-10-06T20:59:12.098Z,102860.53
2022-10-06T21:01:41.951Z,102847.41
2022-10-06T21:04:09.224Z,102845.25
2022-10-06T21:06:39.332Z,102846.41
2022-10-06T21:09:07.443Z,102839.78
2022-10-06T21:11:34.313Z,102836.16
2022-10-06T21:14:01.871Z,102841.47
2022-10-06T21:16:32.125Z,102839.47
2022-10-06T21:19:03.875Z,102839.59
2022-10-06T21:21:34.321Z,102836.72
2022-10-06T21:24:01.185Z,102838.84
2022-10-06T21:26:28.106Z,102842.91
2022-10-06T21:28:55.108Z,102846.34
2022-10-06T21:31:23.578Z,102844.47
2022-10-06T21:33:51.207Z,102836.22
2022-10-06T21:36:22.797Z,102835.66
2022-10-06T21:38:51.499Z,102830.66
2022-10-06T21:41:29.889Z,102826.31
2022-10-06T21:44:12.601Z,102827.31
2022-10-06T21:46:46.685Z,102821.56
2022-10-06T21:49:15.026Z,102815.25
2022-10-06T21:51:43.808Z,102817.25
2022-10-06T21:54:10.448Z,102805.16
2022-10-06T21:56:37.341Z,102809.22
2022-10-06T21:59:04.801Z,102802.00
2022-10-06T22:01:37.226Z,102806.16
2022-10-06T22:04:04.443Z,102801.00
2022-10-06T22:06:32.172Z,102788.03
2022-10-06T22:08:59.426Z,102791.94
2022-10-06T22:11:31.565Z,102777.53
2022-10-06T22:14:00.618Z,102776.97
2022-10-06T22:16:30.188Z,102774.97
2022-10-06T22:18:56.985Z,102769.50
2022-10-06T22:21:26.302Z,102770.06
2022-10-06T22:24:00.210Z,102765.59
2022-10-06T22:26:28.260Z,102760.28
2022-10-06T22:28:56.336Z,102764.03
2022-10-06T22:31:26.284Z,102764.59
2022-10-06T22:33:58.918Z,102761.44
2022-10-06T22:36:26.860Z,102754.97
2022-10-06T22:38:53.618Z,102755.25
2022-10-06T22:41:20.490Z,102747.34
2022-10-06T22:43:47.146Z,102741.44
2022-10-06T22:46:14.049Z,102745.91
2022-10-06T22:48:41.500Z,102739.16
2022-10-06T22:51:08.978Z,102750.25
2022-10-06T22:53:35.438Z,102739.31
2022-10-06T22:56:02.512Z,102739.75
2022-10-06T22:58:29.306Z,102743.66
2022-10-06T23:00:55.998Z,102736.72
2022-10-06T23:03:23.286Z,102740.06
2022-10-06T23:05:57.317Z,102734.00
2022-10-06T23:08:24.247Z,102739.88
2022-10-06T23:10:51.032Z,102729.84
2022-10-06T23:13:17.571Z,102735.84
2022-10-06T23:15:44.145Z,102724.34
2022-10-06T23:18:10.972Z,102735.53
2022-10-06T23:20:37.468Z,102724.91
2022-10-06T23:23:04.002Z,102727.66
2022-10-06T23:25:30.472Z,102722.31
2022-10-06T23:27:57.121Z,102715.84
2022-10-06T23:30:23.611Z,102706.53
2022-10-06T23:32:50.071Z,102710.84
2022-10-06T23:35:16.686Z,102710.28
2022-10-06T23:37:43.667Z,102716.59
2022-10-06T23:40:10.693Z,102714.28
2022-10-06T23:42:38.239Z,102711.97
2022-10-06T23:45:05.345Z,102715.72
2022-10-06T23:47:31.848Z,102711.25
2022-10-06T23:49:58.334Z,102710.69
2022-10-06T23:52:24.841Z,102705.38
2022-10-06T23:54:51.291Z,102710.53
2022-10-06T23:57:17.729Z,102695.25
2022-10-06T23:59:44.660Z,102703.88
